.
WxDataArchive / Data Records for 2016-04-17
2016-04-16 April 2016 2016-04-18

Data Records for Sunday, 17 April 2016

Time	Temp	Chill	HIndex	Humid	Dewpt	 Wind 	HiWind	WindDir	Rain 	Barom
-----	----	-----	------	-----	-----	------	------	-------	-----	-----
00:00	54.5	54.5	54.5	56	39.1	0	1	90	0.00	30.333 
00:05	54.4	54.4	54.4	57	39.5	0	1	90	0.00	30.333 
00:10	54.1	54.1	54.1	57	39.2	0	0	---	0.00	30.333 
00:15	53.8	53.8	53.8	57	38.9	0	0	---	0.00	30.330 
00:20	53.3	53.3	53.3	57	38.5	0	0	---	0.00	30.330 
00:25	53.1	53.1	53.1	58	38.7	0	0	---	0.00	30.330 
00:30	52.8	52.8	52.8	58	38.4	0	0	---	0.00	30.330 
00:35	52.5	52.5	52.5	58	38.2	0	0	---	0.00	30.330 
00:40	52.2	52.2	52.2	58	37.9	0	0	---	0.00	30.330 
00:45	51.7	51.7	51.7	59	37.8	0	0	---	0.00	30.332 
00:50	51.4	51.4	51.4	60	38.0	0	0	---	0.00	30.332 
00:55	51.1	51.1	51.1	60	37.7	0	0	---	0.00	30.332 
01:00	51.0	51.0	51.0	60	37.6	0	0	---	0.00	30.334 
01:05	51.0	51.0	51.0	60	37.6	0	0	---	0.00	30.334 
01:10	51.0	51.0	51.0	59	37.2	0	0	---	0.00	30.334 
01:15	51.1	51.1	51.1	59	37.3	0	0	---	0.00	30.332 
01:20	51.1	51.1	51.1	59	37.3	0	0	---	0.00	30.332 
01:25	51.1	51.1	51.1	59	37.3	0	0	---	0.00	30.332 
01:30	51.0	51.0	51.0	59	37.2	0	0	---	0.00	30.331 
01:35	50.8	50.8	50.8	59	37.0	0	0	---	0.00	30.331 
01:40	50.7	50.7	50.7	59	36.9	0	0	---	0.00	30.331 
01:45	50.7	50.7	50.7	59	36.9	0	0	---	0.00	30.331 
01:50	50.5	50.5	50.5	59	36.7	0	0	---	0.00	30.331 
01:55	50.4	50.4	50.4	58	36.2	0	0	---	0.00	30.331 
02:00	50.1	50.1	50.1	59	36.3	0	0	---	0.00	30.331 
02:05	49.9	49.9	49.9	59	36.1	0	0	---	0.00	30.331 
02:10	49.6	49.6	49.6	59	35.9	0	0	---	0.00	30.331 
02:15	49.5	49.5	49.5	60	36.2	0	0	---	0.00	30.327 
02:20	49.2	49.2	49.2	60	35.9	0	0	---	0.00	30.327 
02:25	48.9	48.9	48.9	60	35.6	0	0	---	0.00	30.327 
02:30	48.6	48.6	48.6	61	35.8	0	0	---	0.00	30.330 
02:35	48.3	48.3	48.3	61	35.5	0	0	---	0.00	30.330 
02:40	48.0	48.0	48.0	62	35.6	0	0	---	0.00	30.330 
02:45	47.7	47.7	47.7	62	35.3	0	0	---	0.00	30.325 
02:50	47.4	47.4	47.4	63	35.4	0	0	---	0.00	30.325 
02:55	47.3	47.3	47.3	63	35.4	0	0	---	0.00	30.325 
03:00	47.1	47.1	47.1	63	35.2	0	0	---	0.00	30.326 
03:05	47.0	47.0	47.0	64	35.5	0	0	---	0.00	30.326 
03:10	46.8	46.8	46.8	65	35.7	0	0	---	0.00	30.326 
03:15	46.8	46.8	46.8	65	35.7	0	0	---	0.00	30.328 
03:20	46.7	46.7	46.7	65	35.6	0	0	---	0.00	30.328 
03:25	46.5	46.5	46.5	65	35.4	0	0	---	0.00	30.328 
03:30	46.4	46.4	46.4	65	35.3	0	0	---	0.00	30.329 
03:35	46.2	46.2	46.2	66	35.5	0	0	---	0.00	30.329 
03:40	46.1	46.1	46.1	66	35.4	0	0	---	0.00	30.329 
03:45	45.8	45.8	45.8	66	35.1	0	0	---	0.00	30.330 
03:50	45.7	45.7	45.7	67	35.4	0	0	---	0.00	30.330 
03:55	45.5	45.5	45.5	68	35.6	0	0	---	0.00	30.330 
04:00	45.4	45.4	45.4	69	35.8	0	0	---	0.00	30.330 
04:05	45.4	45.4	45.4	70	36.2	0	0	---	0.00	30.330 
04:10	45.4	45.4	45.4	70	36.2	0	0	---	0.00	30.330 
04:15	45.2	45.2	45.2	70	36.0	0	0	---	0.00	30.335 
04:20	45.2	45.2	45.2	70	36.0	0	0	---	0.00	30.335 
04:25	45.1	45.1	45.1	69	35.5	0	0	---	0.00	30.335 
04:30	44.9	44.9	44.9	69	35.4	0	0	---	0.00	30.337 
04:35	44.8	44.8	44.8	70	35.6	0	0	---	0.00	30.337 
04:40	44.6	44.6	44.6	70	35.4	0	0	---	0.00	30.337 
04:45	44.5	44.5	44.5	71	35.7	0	0	---	0.00	30.338 
04:50	44.3	44.3	44.3	71	35.5	0	0	---	0.00	30.338 
04:55	44.2	44.2	44.2	71	35.4	0	0	---	0.00	30.338 
05:00	44.2	44.2	44.2	72	35.8	0	0	---	0.00	30.340 
05:05	44.1	44.1	44.1	72	35.7	0	0	---	0.00	30.340 
05:10	44.1	44.1	44.1	72	35.7	0	0	---	0.00	30.340 
05:15	44.2	44.2	44.2	72	35.8	0	0	---	0.00	30.342 
05:20	44.2	44.2	44.2	72	35.8	0	0	---	0.00	30.342 
05:25	44.2	44.2	44.2	72	35.8	0	0	---	0.00	30.342 
05:30	44.1	44.1	44.1	72	35.7	0	0	---	0.00	30.346 
05:35	43.9	43.9	43.9	72	35.5	0	0	---	0.00	30.346 
05:40	43.8	43.8	43.8	72	35.4	0	0	---	0.00	30.346 
05:45	43.6	43.6	43.6	72	35.2	0	0	---	0.00	30.350 
05:50	43.5	43.5	43.5	73	35.4	0	0	---	0.00	30.350 
05:55	43.3	43.3	43.3	73	35.2	0	0	---	0.00	30.350 
06:00	43.1	43.1	43.1	73	35.0	0	0	---	0.00	30.354 
06:05	43.1	43.1	43.1	73	35.0	0	0	---	0.00	30.354 
06:10	42.8	42.8	42.8	73	34.8	0	0	---	0.00	30.354 
06:15	42.6	42.6	42.6	74	34.9	0	0	---	0.00	30.355 
06:20	42.5	42.5	42.5	74	34.8	0	0	---	0.00	30.355 
06:25	42.3	42.3	42.3	75	35.0	0	0	---	0.00	30.355 
06:30	42.2	42.2	42.2	75	34.9	0	0	---	0.00	30.357 
06:35	42.1	42.1	42.1	76	35.1	0	0	---	0.00	30.357 
06:40	41.9	41.9	41.9	77	35.2	0	0	---	0.00	30.357 
06:45	41.9	41.9	41.9	76	34.9	0	0	---	0.00	30.360 
06:50	41.9	41.9	41.9	76	34.9	0	0	---	0.00	30.360 
06:55	42.1	42.1	42.1	76	35.1	0	0	---	0.00	30.360 
07:00	42.3	42.3	42.3	75	35.0	0	0	---	0.00	30.366 
07:05	42.6	42.6	42.6	74	34.9	0	0	---	0.00	30.366 
07:10	43.1	43.1	43.1	73	35.0	0	0	---	0.00	30.366 
07:15	43.3	43.3	43.3	72	34.9	0	0	---	0.00	30.374 
07:20	43.5	43.5	43.5	72	35.1	0	0	---	0.00	30.374 
07:25	43.8	43.8	43.8	72	35.4	0	0	---	0.00	30.374 
07:30	43.9	43.9	43.9	72	35.5	0	0	---	0.00	30.374 
07:35	44.1	44.1	44.1	72	35.7	0	0	---	0.00	30.374 
07:40	44.5	44.5	44.5	71	35.7	0	0	---	0.00	30.374 
07:45	45.4	45.4	45.4	69	35.8	0	1	90	0.00	30.386 
07:50	46.5	46.5	46.5	66	35.8	0	1	90	0.00	30.386 
07:55	47.6	47.6	47.6	64	36.0	0	2	90	0.00	30.386 
08:00	48.6	48.6	48.6	64	37.0	0	0	---	0.00	30.385 
08:05	49.6	49.6	49.6	62	37.1	0	2	90	0.00	30.385 
08:10	50.4	50.4	50.4	60	37.0	0	1	90	0.00	30.385 
08:15	51.0	51.0	51.0	60	37.6	0	2	90	0.00	30.388 
08:20	51.4	51.4	51.4	59	37.6	0	1	90	0.00	30.388 
08:25	51.9	51.9	51.9	58	37.6	0	1	90	0.00	30.388 
08:30	52.2	52.2	52.2	58	37.9	0	1	90	0.00	30.393 
08:35	52.8	52.8	52.8	56	37.5	0	2	90	0.00	30.393 
08:40	53.1	53.1	53.1	57	38.3	0	2	90	0.00	30.393 
08:45	53.3	53.3	53.3	57	38.5	0	0	---	0.00	30.396 
08:50	53.8	53.8	53.8	56	38.5	0	1	90	0.00	30.396 
08:55	54.4	54.4	54.4	57	39.5	0	0	---	0.00	30.396 
09:00	54.7	54.7	54.7	57	39.8	0	3	90	0.00	30.398 
09:05	54.8	54.8	54.8	55	38.9	1	4	90	0.00	30.398 
09:10	54.8	54.8	54.8	57	39.9	1	3	90	0.00	30.398 
09:15	55.0	55.0	55.0	56	39.6	1	3	90	0.00	30.404 
09:20	55.3	55.3	55.3	56	39.9	1	3	90	0.00	30.404 
09:25	55.6	55.6	55.6	56	40.2	0	3	90	0.00	30.404 
09:30	56.2	56.2	56.2	55	40.2	1	2	90	0.00	30.402 
09:35	56.6	56.6	56.6	55	40.6	0	2	90	0.00	30.402 
09:40	57.0	57.0	57.0	54	40.5	0	3	90	0.00	30.402 
09:45	57.5	57.5	57.5	53	40.5	1	2	90	0.00	30.399 
09:50	58.0	58.0	58.0	56	42.4	0	2	90	0.00	30.399 
09:55	58.4	58.4	58.4	51	40.3	1	3	90	0.00	30.399 
10:00	58.9	58.9	58.9	53	41.8	1	3	90	0.00	30.398 
10:05	59.3	59.3	59.3	53	42.2	0	2	90	0.00	30.398 
10:10	59.9	59.9	59.9	53	42.7	0	2	90	0.00	30.398 
10:15	60.7	60.7	60.7	51	42.5	1	3	90	0.00	30.399 
10:20	61.3	61.3	61.3	51	43.0	1	3	90	0.00	30.399 
10:25	62.1	62.1	62.1	50	43.2	0	2	90	0.00	30.399 
10:30	63.1	63.1	63.1	50	44.2	0	3	90	0.00	30.397 
10:35	63.5	63.5	63.5	49	44.0	0	2	90	0.00	30.397 
10:40	64.2	64.2	64.2	49	44.6	0	2	90	0.00	30.397 
10:45	64.8	64.8	64.8	48	44.6	0	1	90	0.00	30.396 
10:50	65.5	65.5	65.5	47	44.7	0	1	90	0.00	30.396 
10:55	65.8	65.8	65.8	46	44.4	1	3	90	0.00	30.396 
11:00	66.3	66.3	66.3	48	46.0	0	2	90	0.00	30.397 
11:05	66.4	66.4	66.4	46	45.0	0	2	90	0.00	30.397 
11:10	66.9	66.9	66.9	47	46.0	0	2	90	0.00	30.397 
11:15	67.4	67.4	67.4	43	44.1	0	2	90	0.00	30.396 
11:20	68.3	68.3	68.3	38	41.7	0	3	90	0.00	30.396 
11:25	68.8	68.8	68.8	43	45.4	0	3	90	0.00	30.396 
11:30	69.3	69.3	69.3	41	44.6	0	2	90	0.00	30.391 
11:35	69.4	69.4	69.4	40	44.0	0	1	90	0.00	30.391 
11:40	69.9	69.9	69.9	39	43.8	0	2	90	0.00	30.391 
11:45	70.4	70.4	70.4	38	43.6	1	3	90	0.00	30.387 
11:50	70.9	70.9	70.9	34	41.1	1	3	90	0.00	30.387 
11:55	71.3	71.3	71.3	38	44.4	0	3	90	0.00	30.387 
12:00	71.6	71.6	71.6	35	42.5	1	4	90	0.00	30.380 
12:05	72.1	72.1	72.1	34	42.2	1	3	90	0.00	30.380 
12:10	72.5	72.5	72.5	35	43.3	0	2	90	0.00	30.380 
12:15	72.8	72.8	72.8	35	43.5	1	3	90	0.00	30.379 
12:20	73.2	73.2	73.2	39	46.7	0	3	90	0.00	30.379 
12:25	73.7	73.7	73.7	32	42.0	0	2	90	0.00	30.379 
12:30	74.4	74.4	74.4	31	41.8	1	4	90	0.00	30.374 
12:35	74.4	74.4	74.4	31	41.8	1	4	90	0.00	30.374 
12:40	74.6	74.6	74.6	33	43.6	1	4	90	0.00	30.374 
12:45	74.7	74.7	74.7	32	42.9	1	3	90	0.00	30.366 
12:50	75.1	75.1	77.2	34	44.8	1	3	90	0.00	30.366 
12:55	75.3	75.3	76.9	28	39.9	1	4	90	0.00	30.366 
13:00	75.3	75.3	76.8	27	39.0	1	4	90	0.00	30.363 
13:05	75.4	75.4	76.8	27	39.1	1	5	90	0.00	30.363 
13:10	75.6	75.6	77.4	34	45.2	1	5	90	0.00	30.363 
13:15	76.1	76.1	77.5	33	44.9	1	3	90	0.00	30.362 
13:20	76.3	76.3	77.1	26	38.9	0	2	90	0.00	30.362 
13:25	76.8	76.8	77.5	29	42.1	0	2	90	0.00	30.362 
13:30	77.0	77.0	77.5	27	40.4	0	2	90	0.00	30.361 
13:35	77.4	77.4	77.6	27	40.8	0	2	90	0.00	30.361 
13:40	77.7	77.7	77.9	29	42.9	0	2	90	0.00	30.361 
13:45	77.6	77.6	77.6	25	39.0	2	6	112	0.00	30.353 
13:50	77.2	77.2	77.4	25	38.6	0	2	112	0.00	30.353 
13:55	77.0	77.0	77.3	25	38.5	0	3	112	0.00	30.353 
14:00	77.0	77.0	77.5	27	40.4	1	4	112	0.00	30.351 
14:05	76.8	76.8	77.2	25	38.3	1	4	112	0.00	30.351 
14:10	76.8	76.8	77.4	27	40.3	1	5	112	0.00	30.351 
14:15	76.8	76.8	77.5	28	41.2	0	3	112	0.00	30.348 
14:20	77.2	77.2	77.3	23	36.5	1	5	112	0.00	30.348 
14:25	77.6	77.6	77.7	27	41.0	0	2	112	0.00	30.348 
14:30	77.6	77.6	77.5	23	36.9	0	3	112	0.00	30.344 
14:35	77.2	77.2	77.5	26	39.6	0	3	112	0.00	30.344 
14:40	77.2	77.2	77.5	26	39.6	1	4	112	0.00	30.344 
14:45	77.4	77.4	77.6	27	40.8	1	4	112	0.00	30.340 
14:50	77.4	77.4	77.6	26	39.8	1	4	112	0.00	30.340 
14:55	77.4	77.4	77.6	27	40.8	0	1	112	0.00	30.340 
15:00	77.6	77.6	77.5	24	37.9	1	4	112	0.00	30.344 
15:05	77.7	77.7	77.6	25	39.1	0	3	112	0.00	30.344 
15:10	77.7	77.7	77.6	24	38.0	0	3	90	0.00	30.344 
15:15	77.9	77.9	77.9	27	41.2	1	4	90	0.00	30.340 
15:20	77.9	77.9	77.8	26	40.2	1	3	90	0.00	30.340 
15:25	77.9	77.9	77.9	28	42.1	1	3	90	0.00	30.340 
15:30	77.6	77.6	77.6	25	39.0	1	4	90	0.00	30.334 
15:35	77.7	77.7	77.7	26	40.1	1	2	90	0.00	30.334 
15:40	77.9	77.9	77.7	25	39.2	1	4	90	0.00	30.334 
15:45	78.1	78.1	78.0	27	41.4	1	4	90	0.00	30.326 
15:50	78.1	78.1	77.8	24	38.4	1	4	90	0.00	30.326 
15:55	77.9	77.9	77.7	25	39.2	1	4	0	0.00	30.326 
16:00	77.9	77.9	77.9	27	41.2	1	5	112	0.00	30.320 
16:05	77.9	77.9	77.8	26	40.2	1	4	90	0.00	30.320 
16:10	77.7	77.7	77.9	29	42.9	1	5	0	0.00	30.320 
16:15	77.7	77.7	77.6	24	38.0	0	2	0	0.00	30.317 
16:20	77.6	77.6	77.5	24	37.9	1	3	292	0.00	30.317 
16:25	77.6	77.6	77.7	26	40.0	2	5	112	0.00	30.317 
16:30	77.6	77.6	77.7	26	40.0	2	6	90	0.00	30.313 
16:35	77.6	77.6	77.7	27	41.0	1	4	90	0.00	30.313 
16:40	77.7	77.7	77.6	25	39.1	1	5	90	0.00	30.313 
16:45	77.6	77.6	77.7	26	40.0	1	4	112	0.00	30.306 
16:50	77.7	77.7	77.6	24	38.0	0	1	112	0.00	30.306 
16:55	77.7	77.7	77.6	25	39.1	1	4	112	0.00	30.306 
17:00	77.7	77.7	77.6	25	39.1	0	3	112	0.00	30.305 
17:05	77.7	77.7	77.6	24	38.0	1	3	112	0.00	30.305 
17:10	77.7	77.7	77.6	24	38.0	1	2	112	0.00	30.305 
17:15	78.1	78.1	77.8	25	39.4	0	1	112	0.00	30.305 
17:20	78.1	78.1	77.8	25	39.4	0	2	112	0.00	30.305 
17:25	78.1	78.1	77.7	23	37.3	1	3	112	0.00	30.305 
17:30	77.9	77.9	77.7	24	38.2	1	4	112	0.00	30.302 
17:35	77.9	77.9	77.6	23	37.1	0	3	112	0.00	30.302 
17:40	77.9	77.9	77.8	26	40.2	1	5	135	0.00	30.302 
17:45	77.7	77.7	77.6	24	38.0	1	3	135	0.00	30.298 
17:50	77.7	77.7	77.6	24	38.0	2	5	90	0.00	30.298 
17:55	77.7	77.7	77.6	24	38.0	0	1	90	0.00	30.298 
18:00	77.7	77.7	77.5	23	36.9	1	3	90	0.00	30.293 
18:05	77.6	77.6	77.6	25	39.0	1	4	90	0.00	30.293 
18:10	77.4	77.4	77.4	23	36.7	0	1	90	0.00	30.293 
18:15	77.4	77.4	77.4	24	37.8	0	3	90	0.00	30.294 
18:20	77.2	77.2	77.5	26	39.6	0	3	90	0.00	30.294 
18:25	77.2	77.2	77.4	25	38.6	0	2	90	0.00	30.294 
18:30	77.0	77.0	77.2	24	37.4	1	4	22	0.00	30.295 
18:35	76.8	76.8	77.2	24	37.3	1	4	90	0.00	30.295 
18:40	76.7	76.7	77.2	25	38.2	0	2	90	0.00	30.295 
18:45	76.7	76.7	77.1	24	37.2	1	5	68	0.00	30.298 
18:50	76.5	76.5	77.1	25	38.0	1	4	68	0.00	30.298 
18:55	76.5	76.5	77.1	25	38.0	0	2	68	0.00	30.298 
19:00	76.3	76.3	77.0	25	37.9	0	2	68	0.00	30.295 
19:05	76.1	76.1	76.8	24	36.7	0	3	68	0.00	30.295 
19:10	76.0	76.0	76.9	25	37.6	0	3	68	0.00	30.295 
19:15	76.0	76.0	77.0	26	38.6	0	1	68	0.00	30.292 
19:20	75.8	75.8	76.8	25	37.5	0	1	68	0.00	30.292 
19:25	75.6	75.6	76.9	27	39.2	0	2	68	0.00	30.292 
19:30	75.3	75.3	76.8	27	39.0	0	2	68	0.00	30.293 
19:35	75.1	75.1	76.7	27	38.8	0	2	68	0.00	30.293 
19:40	74.9	74.9	74.9	27	38.7	0	3	68	0.00	30.293 
19:45	74.7	74.7	74.7	28	39.4	0	2	68	0.00	30.292 
19:50	74.4	74.4	74.4	27	38.2	1	4	68	0.00	30.292 
19:55	74.0	74.0	74.0	28	38.8	0	1	68	0.00	30.292 
20:00	73.9	73.9	73.9	28	38.7	0	2	68	0.00	30.293 
20:05	73.3	73.3	73.3	29	39.1	0	1	68	0.00	30.293 
20:10	73.0	73.0	73.0	30	39.7	0	1	68	0.00	30.293 
20:15	72.3	72.3	72.3	31	40.0	0	0	---	0.00	30.291 
20:20	71.8	71.8	71.8	32	40.3	0	0	---	0.00	30.291 
20:25	71.1	71.1	71.1	32	39.7	0	0	---	0.00	30.291 
20:30	70.6	70.6	70.6	33	40.1	0	0	---	0.00	30.291 
20:35	69.9	69.9	69.9	33	39.5	0	0	---	0.00	30.291 
20:40	69.3	69.3	69.3	34	39.7	0	0	---	0.00	30.291 
20:45	68.6	68.6	68.6	35	39.8	0	0	---	0.00	30.292 
20:50	67.9	67.9	67.9	35	39.2	0	0	---	0.00	30.292 
20:55	67.3	67.3	67.3	36	39.4	0	0	---	0.00	30.292 
21:00	66.6	66.6	66.6	37	39.5	0	0	---	0.00	30.298 
21:05	66.0	66.0	66.0	38	39.7	0	0	---	0.00	30.298 
21:10	65.5	65.5	65.5	39	39.9	0	0	---	0.00	30.298 
21:15	65.0	65.0	65.0	42	41.3	0	0	---	0.00	30.300 
21:20	64.3	64.3	64.3	43	41.3	0	0	---	0.00	30.300 
21:25	63.9	63.9	63.9	44	41.6	0	0	---	0.00	30.300 
21:30	63.4	63.4	63.4	46	42.3	0	0	---	0.00	30.302 
21:35	63.1	63.1	63.1	47	42.5	0	0	---	0.00	30.302 
21:40	62.6	62.6	62.6	48	42.6	0	0	---	0.00	30.302 
21:45	62.3	62.3	62.3	50	43.4	0	0	---	0.00	30.304 
21:50	61.8	61.8	61.8	50	43.0	0	0	---	0.00	30.304 
21:55	61.3	61.3	61.3	51	43.0	0	0	---	0.00	30.304 
22:00	60.9	60.9	60.9	51	42.6	0	0	---	0.00	30.305 
22:05	60.5	60.5	60.5	52	42.8	0	0	---	0.00	30.305 
22:10	60.4	60.4	60.4	54	43.7	0	0	---	0.00	30.305 
22:15	59.9	59.9	59.9	54	43.2	0	0	---	0.00	30.306 
22:20	59.6	59.6	59.6	55	43.4	0	1	68	0.00	30.306 
22:25	59.5	59.5	59.5	54	42.8	0	0	---	0.00	30.306 
22:30	59.2	59.2	59.2	53	42.1	0	1	68	0.00	30.315 
22:35	59.6	59.6	59.6	49	40.4	0	1	68	0.00	30.315 
22:40	60.5	60.5	60.5	48	40.7	0	1	68	0.00	30.315 
22:45	61.5	61.5	61.5	46	40.5	0	1	68	0.00	30.315 
22:50	62.1	62.1	62.1	46	41.1	0	0	---	0.00	30.315 
22:55	62.3	62.3	62.3	46	41.3	0	1	68	0.00	30.315 
23:00	62.3	62.3	62.3	47	41.8	0	0	---	0.00	30.314 
23:05	62.0	62.0	62.0	48	42.1	0	0	---	0.00	30.314 
23:10	61.8	61.8	61.8	48	41.9	0	1	68	0.00	30.314 
23:15	61.5	61.5	61.5	49	42.2	0	0	---	0.00	30.309 
23:20	61.0	61.0	61.0	49	41.7	0	0	---	0.00	30.309 
23:25	60.5	60.5	60.5	50	41.8	0	0	---	0.00	30.309 
23:30	59.9	59.9	59.9	50	41.2	0	0	---	0.00	30.310 
23:35	59.5	59.5	59.5	52	41.9	0	0	---	0.00	30.310 
23:40	59.0	59.0	59.0	52	41.4	0	0	---	0.00	30.310 
23:45	58.6	58.6	58.6	53	41.5	0	0	---	0.00	30.312 
23:50	58.1	58.1	58.1	54	41.5	0	0	---	0.00	30.312 
23:55	57.8	57.8	57.8	55	41.7	0	0	---	0.00	30.312 

CoCoRaHS
IN-AL-39
A2 Web Hosting
Creative Commons License
GoDaddy
search engine by freefind advanced

loaded 2018-11-17 23:06:49 • last modified 2010-11-18 10:43:29
Privacy PolicyDisclaimer
• wx.awcolley.com is powered by PmWiki v.2002016 •
• all content (unless otherwise noted) © 2018 A W Colley